METAR Data
IDs: Format: Raw Decoded Include TAF

Data at: 2340 UTC 29 May 2020

METAR for:KSPW (Spencer Muni, IA, US)
Text:KSPW 292253Z AUTO 35011KT 10SM CLR 22/07 A3016 RMK AO2 SLP214 T02220067
Temperature: 22.2°C ( 72°F)
Dewpoint: 6.7°C ( 44°F) [RH = 37%]
Pressure (altimeter):30.16 inches Hg (1021.4 mb) [Sea level pressure: 1021.4 mb]
Winds:from the N (350 degrees) at 13 MPH (11 knots; 5.7 m/s)
Visibility:10 or more sm (16+ km)
Ceiling:at least 12,000 feet AGL
Clouds:sky clear below 12,000 feet AGL
QC Flag:automated observation with no human augmentation